sensor_id;sensor_type;location;lat;lon;timestamp;P1;durP1;ratioP1;P2;durP2;ratioP2
27746;SDS011;15138;51.012;4.692;2023-08-06T00:02:13;2.90;;;1.05;;
27746;SDS011;15138;51.012;4.692;2023-08-06T00:04:41;3.85;;;0.85;;
27746;SDS011;15138;51.012;4.692;2023-08-06T00:07:10;3.60;;;1.20;;
27746;SDS011;15138;51.012;4.692;2023-08-06T00:09:38;4.35;;;0.90;;
27746;SDS011;15138;51.012;4.692;2023-08-06T00:12:07;5.38;;;1.38;;
27746;SDS011;15138;51.012;4.692;2023-08-06T00:14:36;3.13;;;0.95;;
27746;SDS011;15138;51.012;4.692;2023-08-06T00:17:05;4.80;;;1.15;;
27746;SDS011;15138;51.012;4.692;2023-08-06T00:19:33;3.22;;;1.17;;
27746;SDS011;15138;51.012;4.692;2023-08-06T00:22:02;4.80;;;1.20;;
27746;SDS011;15138;51.012;4.692;2023-08-06T00:24:30;3.85;;;1.20;;
27746;SDS011;15138;51.012;4.692;2023-08-06T00:26:59;5.97;;;1.27;;
27746;SDS011;15138;51.012;4.692;2023-08-06T00:29:27;4.68;;;1.20;;
27746;SDS011;15138;51.012;4.692;2023-08-06T00:31:57;5.43;;;1.23;;
27746;SDS011;15138;51.012;4.692;2023-08-06T00:34:25;4.35;;;1.13;;
27746;SDS011;15138;51.012;4.692;2023-08-06T00:36:54;8.48;;;1.65;;
27746;SDS011;15138;51.012;4.692;2023-08-06T00:39:22;3.42;;;0.93;;
27746;SDS011;15138;51.012;4.692;2023-08-06T00:41:51;4.25;;;1.25;;
27746;SDS011;15138;51.012;4.692;2023-08-06T00:44:20;2.53;;;0.95;;
27746;SDS011;15138;51.012;4.692;2023-08-06T00:46:48;2.92;;;1.02;;
27746;SDS011;15138;51.012;4.692;2023-08-06T00:49:18;3.60;;;1.08;;
27746;SDS011;15138;51.012;4.692;2023-08-06T00:51:46;3.00;;;1.10;;
27746;SDS011;15138;51.012;4.692;2023-08-06T00:54:16;5.50;;;1.23;;
27746;SDS011;15138;51.012;4.692;2023-08-06T00:56:44;3.30;;;0.90;;
27746;SDS011;15138;51.012;4.692;2023-08-06T00:59:13;5.65;;;1.17;;
27746;SDS011;15138;51.012;4.692;2023-08-06T01:01:42;4.13;;;1.05;;
27746;SDS011;15138;51.012;4.692;2023-08-06T01:04:11;2.55;;;0.98;;
27746;SDS011;15138;51.012;4.692;2023-08-06T01:06:43;5.85;;;1.48;;
27746;SDS011;15138;51.012;4.692;2023-08-06T01:09:16;3.75;;;1.13;;
27746;SDS011;15138;51.012;4.692;2023-08-06T01:11:52;2.80;;;1.13;;
27746;SDS011;15138;51.012;4.692;2023-08-06T01:14:23;3.20;;;1.30;;
27746;SDS011;15138;51.012;4.692;2023-08-06T01:16:54;3.78;;;1.15;;
27746;SDS011;15138;51.012;4.692;2023-08-06T01:19:23;4.80;;;1.33;;
27746;SDS011;15138;51.012;4.692;2023-08-06T01:21:53;4.22;;;1.08;;
27746;SDS011;15138;51.012;4.692;2023-08-06T01:24:21;6.47;;;1.10;;
27746;SDS011;15138;51.012;4.692;2023-08-06T01:26:51;3.17;;;1.00;;
27746;SDS011;15138;51.012;4.692;2023-08-06T01:29:23;3.45;;;1.00;;
27746;SDS011;15138;51.012;4.692;2023-08-06T01:31:53;4.68;;;1.40;;
27746;SDS011;15138;51.012;4.692;2023-08-06T01:34:24;2.83;;;1.27;;
27746;SDS011;15138;51.012;4.692;2023-08-06T01:36:55;4.30;;;1.10;;
27746;SDS011;15138;51.012;4.692;2023-08-06T01:39:24;7.72;;;1.20;;
27746;SDS011;15138;51.012;4.692;2023-08-06T01:41:52;3.92;;;1.38;;
27746;SDS011;15138;51.012;4.692;2023-08-06T01:44:21;2.75;;;1.20;;
27746;SDS011;15138;51.012;4.692;2023-08-06T01:46:49;5.43;;;1.10;;
27746;SDS011;15138;51.012;4.692;2023-08-06T01:49:17;2.05;;;1.10;;
27746;SDS011;15138;51.012;4.692;2023-08-06T01:51:46;2.95;;;1.20;;
27746;SDS011;15138;51.012;4.692;2023-08-06T01:54:16;2.47;;;1.05;;
27746;SDS011;15138;51.012;4.692;2023-08-06T01:56:44;4.22;;;0.95;;
27746;SDS011;15138;51.012;4.692;2023-08-06T01:59:12;2.05;;;1.00;;
27746;SDS011;15138;51.012;4.692;2023-08-06T02:01:41;3.60;;;1.17;;
27746;SDS011;15138;51.012;4.692;2023-08-06T02:04:09;1.73;;;0.95;;
27746;SDS011;15138;51.012;4.692;2023-08-06T02:06:38;2.65;;;1.23;;
27746;SDS011;15138;51.012;4.692;2023-08-06T02:09:06;3.60;;;1.20;;
27746;SDS011;15138;51.012;4.692;2023-08-06T02:11:36;3.13;;;1.48;;
27746;SDS011;15138;51.012;4.692;2023-08-06T02:14:04;3.28;;;1.70;;
27746;SDS011;15138;51.012;4.692;2023-08-06T02:16:33;4.35;;;1.30;;
27746;SDS011;15138;51.012;4.692;2023-08-06T02:19:01;3.20;;;1.40;;
27746;SDS011;15138;51.012;4.692;2023-08-06T02:21:29;3.42;;;1.20;;
27746;SDS011;15138;51.012;4.692;2023-08-06T02:23:58;4.00;;;1.42;;
27746;SDS011;15138;51.012;4.692;2023-08-06T02:26:27;2.45;;;0.90;;
27746;SDS011;15138;51.012;4.692;2023-08-06T02:28:57;2.22;;;1.25;;
27746;SDS011;15138;51.012;4.692;2023-08-06T02:31:25;4.72;;;1.20;;
27746;SDS011;15138;51.012;4.692;2023-08-06T02:33:53;2.30;;;1.38;;
27746;SDS011;15138;51.012;4.692;2023-08-06T02:36:22;3.25;;;1.42;;
27746;SDS011;15138;51.012;4.692;2023-08-06T02:38:50;3.17;;;1.52;;
27746;SDS011;15138;51.012;4.692;2023-08-06T02:41:19;3.75;;;1.52;;
27746;SDS011;15138;51.012;4.692;2023-08-06T02:43:47;6.35;;;2.08;;
27746;SDS011;15138;51.012;4.692;2023-08-06T02:46:17;4.68;;;1.73;;
27746;SDS011;15138;51.012;4.692;2023-08-06T02:48:45;4.28;;;1.70;;
27746;SDS011;15138;51.012;4.692;2023-08-06T02:51:14;3.88;;;1.50;;
27746;SDS011;15138;51.012;4.692;2023-08-06T02:53:42;4.80;;;1.65;;
27746;SDS011;15138;51.012;4.692;2023-08-06T02:56:10;4.13;;;2.05;;
27746;SDS011;15138;51.012;4.692;2023-08-06T02:58:39;4.82;;;2.10;;
27746;SDS011;15138;51.012;4.692;2023-08-06T03:01:07;3.28;;;1.33;;
27746;SDS011;15138;51.012;4.692;2023-08-06T03:03:37;3.65;;;2.03;;
27746;SDS011;15138;51.012;4.692;2023-08-06T03:06:06;5.75;;;2.25;;
27746;SDS011;15138;51.012;4.692;2023-08-06T03:08:34;7.18;;;1.85;;
27746;SDS011;15138;51.012;4.692;2023-08-06T03:11:03;3.28;;;1.50;;
27746;SDS011;15138;51.012;4.692;2023-08-06T03:13:31;4.55;;;2.40;;
27746;SDS011;15138;51.012;4.692;2023-08-06T03:15:59;6.68;;;2.17;;
27746;SDS011;15138;51.012;4.692;2023-08-06T03:18:28;4.35;;;2.08;;
27746;SDS011;15138;51.012;4.692;2023-08-06T03:20:58;3.95;;;2.08;;
27746;SDS011;15138;51.012;4.692;2023-08-06T03:23:26;5.22;;;1.83;;
27746;SDS011;15138;51.012;4.692;2023-08-06T03:25:55;9.77;;;2.75;;
27746;SDS011;15138;51.012;4.692;2023-08-06T03:28:23;4.75;;;2.45;;
27746;SDS011;15138;51.012;4.692;2023-08-06T03:30:58;5.90;;;2.63;;
27746;SDS011;15138;51.012;4.692;2023-08-06T03:33:27;3.10;;;1.90;;
27746;SDS011;15138;51.012;4.692;2023-08-06T03:35:55;3.17;;;1.73;;
27746;SDS011;15138;51.012;4.692;2023-08-06T03:38:25;4.20;;;2.13;;
27746;SDS011;15138;51.012;4.692;2023-08-06T03:40:54;3.47;;;1.75;;
27746;SDS011;15138;51.012;4.692;2023-08-06T03:43:22;3.20;;;1.95;;
27746;SDS011;15138;51.012;4.692;2023-08-06T03:45:51;1.80;;;1.60;;
27746;SDS011;15138;51.012;4.692;2023-08-06T03:48:19;2.72;;;1.85;;
27746;SDS011;15138;51.012;4.692;2023-08-06T03:50:47;2.92;;;1.50;;
27746;SDS011;15138;51.012;4.692;2023-08-06T03:53:16;3.85;;;2.50;;
27746;SDS011;15138;51.012;4.692;2023-08-06T03:55:46;6.88;;;2.42;;
27746;SDS011;15138;51.012;4.692;2023-08-06T03:58:14;8.82;;;2.75;;
27746;SDS011;15138;51.012;4.692;2023-08-06T04:00:42;3.30;;;1.98;;
27746;SDS011;15138;51.012;4.692;2023-08-06T04:03:11;4.68;;;3.05;;
27746;SDS011;15138;51.012;4.692;2023-08-06T04:05:39;6.05;;;2.88;;
27746;SDS011;15138;51.012;4.692;2023-08-06T04:08:08;5.75;;;3.03;;
27746;SDS011;15138;51.012;4.692;2023-08-06T04:10:36;4.47;;;2.65;;
27746;SDS011;15138;51.012;4.692;2023-08-06T04:13:06;3.63;;;2.78;;
27746;SDS011;15138;51.012;4.692;2023-08-06T04:15:34;6.47;;;3.55;;
27746;SDS011;15138;51.012;4.692;2023-08-06T04:18:03;2.60;;;2.30;;
27746;SDS011;15138;51.012;4.692;2023-08-06T04:20:31;5.93;;;3.53;;
27746;SDS011;15138;51.012;4.692;2023-08-06T04:23:05;6.30;;;4.38;;
27746;SDS011;15138;51.012;4.692;2023-08-06T04:25:33;3.67;;;2.58;;
27746;SDS011;15138;51.012;4.692;2023-08-06T04:28:02;4.38;;;3.05;;
27746;SDS011;15138;51.012;4.692;2023-08-06T04:30:32;3.65;;;2.40;;
27746;SDS011;15138;51.012;4.692;2023-08-06T04:33:00;4.35;;;2.03;;
27746;SDS011;15138;51.012;4.692;2023-08-06T04:35:29;4.28;;;0.98;;
27746;SDS011;15138;51.012;4.692;2023-08-06T04:37:57;1.95;;;0.90;;
27746;SDS011;15138;51.012;4.692;2023-08-06T04:40:25;1.85;;;0.68;;
27746;SDS011;15138;51.012;4.692;2023-08-06T04:42:54;2.15;;;0.43;;
27746;SDS011;15138;51.012;4.692;2023-08-06T04:45:22;3.30;;;0.55;;
27746;SDS011;15138;51.012;4.692;2023-08-06T04:47:52;0.85;;;0.40;;
27746;SDS011;15138;51.012;4.692;2023-08-06T04:50:21;0.68;;;0.45;;
27746;SDS011;15138;51.012;4.692;2023-08-06T04:52:49;0.95;;;0.55;;
27746;SDS011;15138;51.012;4.692;2023-08-06T04:55:18;1.90;;;0.80;;
27746;SDS011;15138;51.012;4.692;2023-08-06T04:57:46;0.70;;;0.55;;
27746;SDS011;15138;51.012;4.692;2023-08-06T05:00:14;1.55;;;0.43;;
27746;SDS011;15138;51.012;4.692;2023-08-06T05:02:43;1.67;;;0.70;;
27746;SDS011;15138;51.012;4.692;2023-08-06T05:05:13;0.93;;;0.60;;
27746;SDS011;15138;51.012;4.692;2023-08-06T05:07:41;1.65;;;0.70;;
27746;SDS011;15138;51.012;4.692;2023-08-06T05:10:10;0.57;;;0.50;;
27746;SDS011;15138;51.012;4.692;2023-08-06T05:12:38;1.52;;;0.60;;
27746;SDS011;15138;51.012;4.692;2023-08-06T05:15:07;4.55;;;1.75;;
27746;SDS011;15138;51.012;4.692;2023-08-06T05:17:35;3.97;;;1.23;;
27746;SDS011;15138;51.012;4.692;2023-08-06T05:20:04;0.98;;;0.65;;
27746;SDS011;15138;51.012;4.692;2023-08-06T05:22:34;3.80;;;1.38;;
27746;SDS011;15138;51.012;4.692;2023-08-06T05:25:03;4.72;;;2.22;;
27746;SDS011;15138;51.012;4.692;2023-08-06T05:27:32;4.70;;;2.05;;
27746;SDS011;15138;51.012;4.692;2023-08-06T05:30:01;6.38;;;2.45;;
27746;SDS011;15138;51.012;4.692;2023-08-06T05:32:29;7.68;;;2.88;;
27746;SDS011;15138;51.012;4.692;2023-08-06T05:34:58;5.55;;;2.90;;
27746;SDS011;15138;51.012;4.692;2023-08-06T05:37:26;7.38;;;2.70;;
27746;SDS011;15138;51.012;4.692;2023-08-06T05:39:56;7.72;;;3.50;;
27746;SDS011;15138;51.012;4.692;2023-08-06T05:42:24;5.70;;;2.30;;
27746;SDS011;15138;51.012;4.692;2023-08-06T05:44:53;6.05;;;2.50;;
27746;SDS011;15138;51.012;4.692;2023-08-06T05:47:21;6.57;;;2.95;;
27746;SDS011;15138;51.012;4.692;2023-08-06T05:49:50;6.72;;;2.50;;
27746;SDS011;15138;51.012;4.692;2023-08-06T05:52:18;5.07;;;2.40;;
27746;SDS011;15138;51.012;4.692;2023-08-06T05:54:47;7.85;;;3.25;;
27746;SDS011;15138;51.012;4.692;2023-08-06T05:57:17;7.13;;;2.35;;
27746;SDS011;15138;51.012;4.692;2023-08-06T05:59:45;5.30;;;2.42;;
27746;SDS011;15138;51.012;4.692;2023-08-06T06:02:13;6.55;;;2.33;;
27746;SDS011;15138;51.012;4.692;2023-08-06T06:04:42;6.25;;;2.20;;
27746;SDS011;15138;51.012;4.692;2023-08-06T06:07:11;5.03;;;2.05;;
27746;SDS011;15138;51.012;4.692;2023-08-06T06:09:40;6.53;;;2.05;;
27746;SDS011;15138;51.012;4.692;2023-08-06T06:12:08;4.95;;;1.80;;
27746;SDS011;15138;51.012;4.692;2023-08-06T06:14:38;5.15;;;1.90;;
27746;SDS011;15138;51.012;4.692;2023-08-06T06:17:07;6.38;;;1.80;;
27746;SDS011;15138;51.012;4.692;2023-08-06T06:19:35;5.75;;;1.75;;
27746;SDS011;15138;51.012;4.692;2023-08-06T06:22:04;7.50;;;1.85;;
27746;SDS011;15138;51.012;4.692;2023-08-06T06:24:32;7.20;;;2.25;;
27746;SDS011;15138;51.012;4.692;2023-08-06T06:27:00;6.22;;;2.40;;
27746;SDS011;15138;51.012;4.692;2023-08-06T06:29:29;5.78;;;2.10;;
27746;SDS011;15138;51.012;4.692;2023-08-06T06:31:59;4.93;;;1.98;;
27746;SDS011;15138;51.012;4.692;2023-08-06T06:34:27;6.70;;;2.10;;
27746;SDS011;15138;51.012;4.692;2023-08-06T06:36:56;8.00;;;2.30;;
27746;SDS011;15138;51.012;4.692;2023-08-06T06:39:24;6.60;;;2.30;;
27746;SDS011;15138;51.012;4.692;2023-08-06T06:41:52;7.70;;;2.40;;
27746;SDS011;15138;51.012;4.692;2023-08-06T06:44:21;6.05;;;2.50;;
27746;SDS011;15138;51.012;4.692;2023-08-06T06:46:50;10.05;;;2.53;;
27746;SDS011;15138;51.012;4.692;2023-08-06T06:49:19;5.15;;;2.10;;
27746;SDS011;15138;51.012;4.692;2023-08-06T06:51:48;8.93;;;2.78;;
27746;SDS011;15138;51.012;4.692;2023-08-06T06:54:17;11.32;;;2.50;;
27746;SDS011;15138;51.012;4.692;2023-08-06T06:56:45;8.50;;;2.50;;
27746;SDS011;15138;51.012;4.692;2023-08-06T06:59:14;6.20;;;2.72;;
27746;SDS011;15138;51.012;4.692;2023-08-06T07:01:42;4.80;;;2.20;;
27746;SDS011;15138;51.012;4.692;2023-08-06T07:04:11;8.77;;;2.67;;
27746;SDS011;15138;51.012;4.692;2023-08-06T07:06:40;6.70;;;2.45;;
27746;SDS011;15138;51.012;4.692;2023-08-06T07:09:09;5.43;;;2.10;;
27746;SDS011;15138;51.012;4.692;2023-08-06T07:11:37;5.30;;;2.00;;
27746;SDS011;15138;51.012;4.692;2023-08-06T07:14:07;8.05;;;3.08;;
27746;SDS011;15138;51.012;4.692;2023-08-06T07:16:36;6.82;;;2.55;;
27746;SDS011;15138;51.012;4.692;2023-08-06T07:19:04;9.25;;;2.72;;
27746;SDS011;15138;51.012;4.692;2023-08-06T07:21:33;8.50;;;2.17;;
27746;SDS011;15138;51.012;4.692;2023-08-06T07:24:02;9.32;;;2.45;;
27746;SDS011;15138;51.012;4.692;2023-08-06T07:26:31;10.80;;;2.63;;
27746;SDS011;15138;51.012;4.692;2023-08-06T07:28:59;10.82;;;2.13;;
27746;SDS011;15138;51.012;4.692;2023-08-06T07:31:28;6.25;;;2.30;;
27746;SDS011;15138;51.012;4.692;2023-08-06T07:33:56;3.97;;;1.88;;
27746;SDS011;15138;51.012;4.692;2023-08-06T07:36:25;8.02;;;2.33;;
27746;SDS011;15138;51.012;4.692;2023-08-06T07:38:53;4.72;;;1.77;;
27746;SDS011;15138;51.012;4.692;2023-08-06T07:41:25;3.67;;;1.60;;
27746;SDS011;15138;51.012;4.692;2023-08-06T07:43:54;6.15;;;1.85;;
27746;SDS011;15138;51.012;4.692;2023-08-06T07:46:22;7.47;;;2.08;;
27746;SDS011;15138;51.012;4.692;2023-08-06T07:48:51;7.40;;;1.88;;
27746;SDS011;15138;51.012;4.692;2023-08-06T07:51:19;5.47;;;1.90;;
27746;SDS011;15138;51.012;4.692;2023-08-06T07:53:47;7.90;;;2.00;;
27746;SDS011;15138;51.012;4.692;2023-08-06T07:56:16;5.47;;;1.75;;
27746;SDS011;15138;51.012;4.692;2023-08-06T07:58:46;7.72;;;2.00;;
27746;SDS011;15138;51.012;4.692;2023-08-06T08:01:14;10.73;;;2.60;;
27746;SDS011;15138;51.012;4.692;2023-08-06T08:03:43;5.72;;;1.30;;
27746;SDS011;15138;51.012;4.692;2023-08-06T08:06:12;8.07;;;1.83;;
27746;SDS011;15138;51.012;4.692;2023-08-06T08:08:40;7.32;;;2.00;;
27746;SDS011;15138;51.012;4.692;2023-08-06T08:11:09;7.78;;;1.88;;
27746;SDS011;15138;51.012;4.692;2023-08-06T08:13:37;8.70;;;2.03;;
27746;SDS011;15138;51.012;4.692;2023-08-06T08:16:07;12.18;;;1.55;;
27746;SDS011;15138;51.012;4.692;2023-08-06T08:18:35;8.60;;;1.60;;
27746;SDS011;15138;51.012;4.692;2023-08-06T08:21:04;10.85;;;1.65;;
27746;SDS011;15138;51.012;4.692;2023-08-06T08:23:32;9.80;;;1.70;;
27746;SDS011;15138;51.012;4.692;2023-08-06T08:26:01;13.63;;;1.90;;
27746;SDS011;15138;51.012;4.692;2023-08-06T08:28:30;13.50;;;2.10;;
27746;SDS011;15138;51.012;4.692;2023-08-06T08:30:58;11.07;;;1.90;;
27746;SDS011;15138;51.012;4.692;2023-08-06T08:33:28;11.68;;;1.60;;
27746;SDS011;15138;51.012;4.692;2023-08-06T08:35:56;10.82;;;1.73;;
27746;SDS011;15138;51.012;4.692;2023-08-06T08:38:25;10.70;;;1.67;;
27746;SDS011;15138;51.012;4.692;2023-08-06T08:40:53;8.77;;;1.38;;
27746;SDS011;15138;51.012;4.692;2023-08-06T08:43:22;10.90;;;1.42;;
27746;SDS011;15138;51.012;4.692;2023-08-06T08:45:51;7.32;;;1.50;;
27746;SDS011;15138;51.012;4.692;2023-08-06T08:48:21;4.68;;;1.50;;
27746;SDS011;15138;51.012;4.692;2023-08-06T08:50:52;6.55;;;1.25;;
27746;SDS011;15138;51.012;4.692;2023-08-06T08:53:20;9.25;;;1.60;;
27746;SDS011;15138;51.012;4.692;2023-08-06T08:55:49;8.88;;;1.80;;
27746;SDS011;15138;51.012;4.692;2023-08-06T08:58:18;10.88;;;1.55;;
27746;SDS011;15138;51.012;4.692;2023-08-06T09:00:46;10.65;;;1.67;;
27746;SDS011;15138;51.012;4.692;2023-08-06T09:03:15;7.70;;;1.52;;
27746;SDS011;15138;51.012;4.692;2023-08-06T09:05:44;9.75;;;1.80;;
27746;SDS011;15138;51.012;4.692;2023-08-06T09:08:15;11.15;;;1.70;;
27746;SDS011;15138;51.012;4.692;2023-08-06T09:10:46;9.35;;;1.38;;
27746;SDS011;15138;51.012;4.692;2023-08-06T09:13:17;8.38;;;1.50;;
27746;SDS011;15138;51.012;4.692;2023-08-06T09:15:46;10.32;;;1.83;;
27746;SDS011;15138;51.012;4.692;2023-08-06T09:18:24;7.03;;;1.50;;
27746;SDS011;15138;51.012;4.692;2023-08-06T09:20:53;10.38;;;1.58;;
27746;SDS011;15138;51.012;4.692;2023-08-06T09:23:24;8.57;;;1.48;;
27746;SDS011;15138;51.012;4.692;2023-08-06T09:25:56;6.72;;;1.30;;
27746;SDS011;15138;51.012;4.692;2023-08-06T09:28:24;4.70;;;1.10;;
27746;SDS011;15138;51.012;4.692;2023-08-06T09:30:53;4.97;;;1.35;;
27746;SDS011;15138;51.012;4.692;2023-08-06T09:33:22;4.03;;;1.13;;
27746;SDS011;15138;51.012;4.692;2023-08-06T09:35:51;8.13;;;1.35;;
27746;SDS011;15138;51.012;4.692;2023-08-06T09:38:21;8.00;;;1.40;;
27746;SDS011;15138;51.012;4.692;2023-08-06T09:40:51;9.80;;;1.65;;
27746;SDS011;15138;51.012;4.692;2023-08-06T09:43:19;9.25;;;1.73;;
27746;SDS011;15138;51.012;4.692;2023-08-06T09:45:48;8.20;;;1.80;;
27746;SDS011;15138;51.012;4.692;2023-08-06T09:48:16;5.60;;;1.70;;
27746;SDS011;15138;51.012;4.692;2023-08-06T09:50:45;10.05;;;1.63;;
27746;SDS011;15138;51.012;4.692;2023-08-06T09:53:14;8.43;;;1.67;;
27746;SDS011;15138;51.012;4.692;2023-08-06T09:55:42;6.55;;;1.52;;
27746;SDS011;15138;51.012;4.692;2023-08-06T09:58:12;3.20;;;1.05;;
27746;SDS011;15138;51.012;4.692;2023-08-06T10:00:40;4.07;;;1.00;;
27746;SDS011;15138;51.012;4.692;2023-08-06T10:03:09;4.78;;;0.95;;
27746;SDS011;15138;51.012;4.692;2023-08-06T10:05:40;5.40;;;1.15;;
27746;SDS011;15138;51.012;4.692;2023-08-06T10:08:11;4.78;;;0.98;;
27746;SDS011;15138;51.012;4.692;2023-08-06T10:10:39;4.20;;;0.98;;
27746;SDS011;15138;51.012;4.692;2023-08-06T10:13:08;6.45;;;1.20;;
27746;SDS011;15138;51.012;4.692;2023-08-06T10:15:38;4.82;;;1.13;;
27746;SDS011;15138;51.012;4.692;2023-08-06T10:18:08;2.90;;;1.08;;
27746;SDS011;15138;51.012;4.692;2023-08-06T10:20:37;5.57;;;1.17;;
27746;SDS011;15138;51.012;4.692;2023-08-06T10:23:06;8.02;;;1.05;;
27746;SDS011;15138;51.012;4.692;2023-08-06T10:25:35;7.82;;;1.63;;
27746;SDS011;15138;51.012;4.692;2023-08-06T10:28:07;8.60;;;1.50;;
27746;SDS011;15138;51.012;4.692;2023-08-06T10:30:47;10.27;;;1.58;;
27746;SDS011;15138;51.012;4.692;2023-08-06T10:33:16;6.90;;;1.13;;
27746;SDS011;15138;51.012;4.692;2023-08-06T10:35:48;10.27;;;1.90;;
27746;SDS011;15138;51.012;4.692;2023-08-06T10:38:18;5.57;;;1.13;;
27746;SDS011;15138;51.012;4.692;2023-08-06T10:40:48;4.38;;;1.30;;
27746;SDS011;15138;51.012;4.692;2023-08-06T10:43:26;5.90;;;1.05;;
27746;SDS011;15138;51.012;4.692;2023-08-06T10:45:56;4.10;;;1.08;;
27746;SDS011;15138;51.012;4.692;2023-08-06T10:48:28;7.10;;;1.60;;
27746;SDS011;15138;51.012;4.692;2023-08-06T10:50:59;7.43;;;1.63;;
27746;SDS011;15138;51.012;4.692;2023-08-06T10:53:28;5.57;;;1.50;;
27746;SDS011;15138;51.012;4.692;2023-08-06T10:55:59;8.20;;;1.83;;
27746;SDS011;15138;51.012;4.692;2023-08-06T10:58:31;7.20;;;1.30;;
27746;SDS011;15138;51.012;4.692;2023-08-06T11:01:01;9.43;;;1.65;;
27746;SDS011;15138;51.012;4.692;2023-08-06T11:03:30;7.57;;;0.90;;
27746;SDS011;15138;51.012;4.692;2023-08-06T11:06:00;5.20;;;0.77;;
27746;SDS011;15138;51.012;4.692;2023-08-06T11:08:32;7.60;;;1.05;;
27746;SDS011;15138;51.012;4.692;2023-08-06T11:11:07;7.93;;;1.40;;
27746;SDS011;15138;51.012;4.692;2023-08-06T11:13:37;7.28;;;1.33;;
27746;SDS011;15138;51.012;4.692;2023-08-06T11:16:07;3.03;;;1.00;;
27746;SDS011;15138;51.012;4.692;2023-08-06T11:18:36;1.90;;;0.60;;
27746;SDS011;15138;51.012;4.692;2023-08-06T11:21:04;6.05;;;1.33;;
27746;SDS011;15138;51.012;4.692;2023-08-06T11:23:34;5.70;;;1.25;;
27746;SDS011;15138;51.012;4.692;2023-08-06T11:26:03;4.10;;;0.98;;
27746;SDS011;15138;51.012;4.692;2023-08-06T11:28:32;7.25;;;1.30;;
27746;SDS011;15138;51.012;4.692;2023-08-06T11:31:00;4.22;;;1.00;;
27746;SDS011;15138;51.012;4.692;2023-08-06T11:33:31;5.10;;;1.20;;
27746;SDS011;15138;51.012;4.692;2023-08-06T11:36:00;7.65;;;1.42;;
27746;SDS011;15138;51.012;4.692;2023-08-06T11:38:29;3.88;;;1.23;;
27746;SDS011;15138;51.012;4.692;2023-08-06T11:40:58;5.72;;;1.42;;
27746;SDS011;15138;51.012;4.692;2023-08-06T11:43:26;4.78;;;0.90;;
27746;SDS011;15138;51.012;4.692;2023-08-06T11:45:59;4.68;;;1.02;;
27746;SDS011;15138;51.012;4.692;2023-08-06T11:48:27;5.78;;;1.13;;
27746;SDS011;15138;51.012;4.692;2023-08-06T11:50:57;8.25;;;1.33;;
27746;SDS011;15138;51.012;4.692;2023-08-06T11:53:27;6.85;;;1.20;;
27746;SDS011;15138;51.012;4.692;2023-08-06T11:55:56;6.45;;;1.67;;
27746;SDS011;15138;51.012;4.692;2023-08-06T11:58:24;6.88;;;1.50;;
27746;SDS011;15138;51.012;4.692;2023-08-06T12:00:53;5.93;;;1.67;;
27746;SDS011;15138;51.012;4.692;2023-08-06T12:03:22;4.95;;;1.00;;
27746;SDS011;15138;51.012;4.692;2023-08-06T12:05:53;4.82;;;1.10;;
27746;SDS011;15138;51.012;4.692;2023-08-06T12:08:25;8.35;;;2.03;;
27746;SDS011;15138;51.012;4.692;2023-08-06T12:10:54;9.07;;;1.83;;
27746;SDS011;15138;51.012;4.692;2023-08-06T12:13:23;9.88;;;2.13;;
27746;SDS011;15138;51.012;4.692;2023-08-06T12:15:51;8.32;;;1.60;;
27746;SDS011;15138;51.012;4.692;2023-08-06T12:18:20;6.93;;;1.30;;
27746;SDS011;15138;51.012;4.692;2023-08-06T12:20:48;10.40;;;1.73;;
27746;SDS011;15138;51.012;4.692;2023-08-06T12:23:17;6.05;;;1.20;;
27746;SDS011;15138;51.012;4.692;2023-08-06T12:25:47;7.70;;;1.48;;
27746;SDS011;15138;51.012;4.692;2023-08-06T12:28:16;4.60;;;1.20;;
27746;SDS011;15138;51.012;4.692;2023-08-06T12:30:45;5.70;;;1.50;;
27746;SDS011;15138;51.012;4.692;2023-08-06T12:33:15;7.22;;;1.50;;
27746;SDS011;15138;51.012;4.692;2023-08-06T12:35:43;7.50;;;1.60;;
27746;SDS011;15138;51.012;4.692;2023-08-06T12:38:12;6.65;;;1.50;;
27746;SDS011;15138;51.012;4.692;2023-08-06T12:40:40;6.40;;;1.67;;
27746;SDS011;15138;51.012;4.692;2023-08-06T12:43:10;5.18;;;1.73;;
27746;SDS011;15138;51.012;4.692;2023-08-06T12:45:39;9.02;;;1.98;;
27746;SDS011;15138;51.012;4.692;2023-08-06T12:48:07;7.28;;;1.70;;
27746;SDS011;15138;51.012;4.692;2023-08-06T12:50:36;6.20;;;1.60;;
27746;SDS011;15138;51.012;4.692;2023-08-06T12:53:04;8.18;;;1.63;;
27746;SDS011;15138;51.012;4.692;2023-08-06T12:55:33;10.90;;;2.40;;
27746;SDS011;15138;51.012;4.692;2023-08-06T12:58:01;9.63;;;1.52;;
27746;SDS011;15138;51.012;4.692;2023-08-06T13:00:31;6.65;;;1.35;;
27746;SDS011;15138;51.012;4.692;2023-08-06T13:03:00;7.90;;;1.80;;
27746;SDS011;15138;51.012;4.692;2023-08-06T13:05:29;5.28;;;1.85;;
27746;SDS011;15138;51.012;4.692;2023-08-06T13:07:57;6.65;;;1.90;;
27746;SDS011;15138;51.012;4.692;2023-08-06T13:10:26;8.18;;;1.38;;
27746;SDS011;15138;51.012;4.692;2023-08-06T13:12:55;12.30;;;2.08;;
27746;SDS011;15138;51.012;4.692;2023-08-06T13:15:23;5.03;;;1.10;;
27746;SDS011;15138;51.012;4.692;2023-08-06T13:17:53;3.13;;;1.05;;
27746;SDS011;15138;51.012;4.692;2023-08-06T13:20:22;8.02;;;1.50;;
27746;SDS011;15138;51.012;4.692;2023-08-06T13:22:50;9.77;;;1.90;;
27746;SDS011;15138;51.012;4.692;2023-08-06T13:25:20;4.97;;;1.13;;
27746;SDS011;15138;51.012;4.692;2023-08-06T13:27:49;8.52;;;1.73;;
27746;SDS011;15138;51.012;4.692;2023-08-06T13:30:17;3.28;;;1.13;;
27746;SDS011;15138;51.012;4.692;2023-08-06T13:32:46;10.13;;;1.75;;
27746;SDS011;15138;51.012;4.692;2023-08-06T13:35:15;9.45;;;2.30;;
27746;SDS011;15138;51.012;4.692;2023-08-06T13:37:44;7.15;;;1.52;;
27746;SDS011;15138;51.012;4.692;2023-08-06T13:40:14;11.27;;;2.05;;
27746;SDS011;15138;51.012;4.692;2023-08-06T13:42:43;8.70;;;1.88;;
27746;SDS011;15138;51.012;4.692;2023-08-06T13:45:11;5.35;;;0.98;;
27746;SDS011;15138;51.012;4.692;2023-08-06T13:47:40;4.85;;;1.30;;
27746;SDS011;15138;51.012;4.692;2023-08-06T13:50:09;3.85;;;0.95;;
27746;SDS011;15138;51.012;4.692;2023-08-06T13:52:39;8.90;;;1.67;;
27746;SDS011;15138;51.012;4.692;2023-08-06T13:55:08;3.42;;;1.10;;
27746;SDS011;15138;51.012;4.692;2023-08-06T13:57:36;2.33;;;0.90;;
27746;SDS011;15138;51.012;4.692;2023-08-06T14:00:05;6.63;;;1.30;;
27746;SDS011;15138;51.012;4.692;2023-08-06T14:02:34;5.93;;;1.35;;
27746;SDS011;15138;51.012;4.692;2023-08-06T14:05:02;7.60;;;1.42;;
27746;SDS011;15138;51.012;4.692;2023-08-06T14:07:31;4.07;;;0.88;;
27746;SDS011;15138;51.012;4.692;2023-08-06T14:10:01;5.50;;;1.17;;
27746;SDS011;15138;51.012;4.692;2023-08-06T14:12:29;5.40;;;1.40;;
27746;SDS011;15138;51.012;4.692;2023-08-06T14:14:58;4.80;;;1.15;;
27746;SDS011;15138;51.012;4.692;2023-08-06T14:17:26;2.83;;;0.77;;
27746;SDS011;15138;51.012;4.692;2023-08-06T14:19:55;3.65;;;0.90;;
27746;SDS011;15138;51.012;4.692;2023-08-06T14:22:23;5.63;;;1.50;;
27746;SDS011;15138;51.012;4.692;2023-08-06T14:24:52;5.25;;;1.40;;
27746;SDS011;15138;51.012;4.692;2023-08-06T14:27:22;4.43;;;1.02;;
27746;SDS011;15138;51.012;4.692;2023-08-06T14:29:51;8.65;;;1.75;;
27746;SDS011;15138;51.012;4.692;2023-08-06T14:32:19;6.38;;;1.05;;
27746;SDS011;15138;51.012;4.692;2023-08-06T14:34:48;3.35;;;1.13;;
27746;SDS011;15138;51.012;4.692;2023-08-06T14:37:16;5.00;;;0.75;;
27746;SDS011;15138;51.012;4.692;2023-08-06T14:39:45;6.22;;;1.30;;
27746;SDS011;15138;51.012;4.692;2023-08-06T14:42:13;9.45;;;1.40;;
27746;SDS011;15138;51.012;4.692;2023-08-06T14:44:43;5.97;;;1.40;;
27746;SDS011;15138;51.012;4.692;2023-08-06T14:47:12;4.30;;;1.15;;
27746;SDS011;15138;51.012;4.692;2023-08-06T14:49:40;8.55;;;1.73;;
27746;SDS011;15138;51.012;4.692;2023-08-06T14:52:09;3.92;;;1.05;;
27746;SDS011;15138;51.012;4.692;2023-08-06T14:54:37;5.00;;;1.35;;
27746;SDS011;15138;51.012;4.692;2023-08-06T14:57:06;6.25;;;1.52;;